createdAt,value
2019-02-24T00:02:02.755Z,18.40
2019-02-24T00:04:31.287Z,18.63
2019-02-24T00:06:59.799Z,17.17
2019-02-24T00:09:28.352Z,18.33
2019-02-24T00:11:57.097Z,17.67
2019-02-24T00:14:25.711Z,18.40
2019-02-24T00:16:54.395Z,18.50
2019-02-24T00:19:23.048Z,19.23
2019-02-24T00:21:51.622Z,20.07
2019-02-24T00:24:20.390Z,20.63
2019-02-24T00:26:49.061Z,18.53
2019-02-24T00:29:17.782Z,19.60
2019-02-24T00:31:46.576Z,21.00
2019-02-24T00:34:15.178Z,20.03
2019-02-24T00:36:44.000Z,21.57
2019-02-24T00:39:12.723Z,20.40
2019-02-24T00:41:41.344Z,19.13
2019-02-24T00:44:09.835Z,17.33
2019-02-24T00:46:38.377Z,19.03
2019-02-24T00:49:06.952Z,19.13
2019-02-24T00:51:35.707Z,17.80
2019-02-24T00:54:04.282Z,18.17
2019-02-24T00:56:32.856Z,17.67
2019-02-24T00:59:01.455Z,17.93
2019-02-24T01:01:30.000Z,17.80
2019-02-24T01:03:58.570Z,17.30
2019-02-24T01:06:27.212Z,17.20
2019-02-24T01:08:55.694Z,16.30
2019-02-24T01:11:24.307Z,17.37
2019-02-24T01:13:54.003Z,17.77
2019-02-24T01:16:22.879Z,18.17
2019-02-24T01:18:51.410Z,18.20
2019-02-24T01:21:19.958Z,17.97
2019-02-24T01:23:48.516Z,19.03
2019-02-24T01:26:17.008Z,18.53
2019-02-24T01:28:45.544Z,19.03
2019-02-24T01:31:14.104Z,19.40
2019-02-24T01:33:42.622Z,19.43
2019-02-24T01:36:11.151Z,20.43
2019-02-24T01:38:39.664Z,19.30
2019-02-24T01:41:08.130Z,18.20
2019-02-24T01:43:36.695Z,18.33
2019-02-24T01:46:05.171Z,17.47
2019-02-24T01:48:33.659Z,18.80
2019-02-24T01:51:02.145Z,18.80
2019-02-24T01:53:30.608Z,19.43
2019-02-24T01:55:59.254Z,19.63
2019-02-24T01:58:34.994Z,18.43
2019-02-24T02:00:58.516Z,19.40
2019-02-24T02:03:27.051Z,20.47
2019-02-24T02:05:55.603Z,17.90
2019-02-24T02:08:24.142Z,18.77
2019-02-24T02:10:52.794Z,18.00
2019-02-24T02:13:21.359Z,16.80
2019-02-24T02:15:50.003Z,18.73
2019-02-24T02:18:18.571Z,17.57
2019-02-24T02:20:47.087Z,18.83
2019-02-24T02:23:16.157Z,19.17
2019-02-24T02:25:45.081Z,19.17
2019-02-24T02:28:13.775Z,17.97
2019-02-24T02:30:42.377Z,18.30
2019-02-24T02:33:10.962Z,18.40
2019-02-24T02:35:39.662Z,18.77
2019-02-24T02:38:08.296Z,18.27
2019-02-24T02:40:36.941Z,19.07
2019-02-24T02:43:05.508Z,19.30
2019-02-24T02:45:34.213Z,18.07
2019-02-24T02:48:02.746Z,19.67
2019-02-24T02:50:31.323Z,19.27
2019-02-24T02:52:59.870Z,20.70
2019-02-24T02:55:28.534Z,19.80
2019-02-24T02:57:57.191Z,18.77
2019-02-24T03:00:30.731Z,17.73
2019-02-24T03:02:59.264Z,18.17
2019-02-24T03:05:27.836Z,18.17
2019-02-24T03:07:57.940Z,17.97
2019-02-24T03:10:26.401Z,18.33
2019-02-24T03:12:54.893Z,18.10
2019-02-24T03:15:23.364Z,18.43
2019-02-24T03:17:51.934Z,20.87
2019-02-24T03:20:20.474Z,20.80
2019-02-24T03:22:49.046Z,21.10
2019-02-24T03:25:17.838Z,18.77
2019-02-24T03:27:46.385Z,17.50
2019-02-24T03:30:15.033Z,17.97
2019-02-24T03:32:43.603Z,19.73
2019-02-24T03:35:12.167Z,20.47
2019-02-24T03:37:40.663Z,18.07
2019-02-24T03:40:09.273Z,18.53
2019-02-24T03:42:37.878Z,18.20
2019-02-24T03:45:08.988Z,18.77
2019-02-24T03:47:37.489Z,17.47
2019-02-24T03:50:08.137Z,17.07
2019-02-24T03:52:36.854Z,17.87
2019-02-24T03:55:05.858Z,17.07
2019-02-24T03:57:34.665Z,17.07
2019-02-24T04:00:03.693Z,17.00
2019-02-24T04:02:32.229Z,17.03
2019-02-24T04:05:00.870Z,17.77
2019-02-24T04:07:29.508Z,17.57
2019-02-24T04:09:58.003Z,17.27
2019-02-24T04:12:26.491Z,17.00
2019-02-24T04:14:54.956Z,17.50
2019-02-24T04:17:23.455Z,18.10
2019-02-24T04:19:51.916Z,19.30
2019-02-24T04:22:20.479Z,18.90
2019-02-24T04:24:48.949Z,18.23
2019-02-24T04:27:17.447Z,17.77
2019-02-24T04:29:45.923Z,18.23
2019-02-24T04:32:14.461Z,19.30
2019-02-24T04:34:43.036Z,18.80
2019-02-24T04:37:11.499Z,18.07
2019-02-24T04:39:39.997Z,18.57
2019-02-24T04:42:08.452Z,18.03
2019-02-24T04:44:36.953Z,18.33
2019-02-24T04:47:05.507Z,17.43
2019-02-24T04:49:34.004Z,17.07
2019-02-24T04:52:02.472Z,18.77
2019-02-24T04:54:31.004Z,16.30
2019-02-24T04:56:59.471Z,17.13
2019-02-24T04:59:34.779Z,17.30
2019-02-24T05:01:58.236Z,17.33
2019-02-24T05:04:26.702Z,16.77
2019-02-24T05:06:55.216Z,17.70
2019-02-24T05:09:23.751Z,19.23
2019-02-24T05:11:52.213Z,19.73
2019-02-24T05:14:20.988Z,20.53
2019-02-24T05:16:49.561Z,18.33
2019-02-24T05:19:18.132Z,18.00
2019-02-24T05:21:46.699Z,17.40
2019-02-24T05:24:15.200Z,17.37
2019-02-24T05:26:43.745Z,19.27
2019-02-24T05:29:12.283Z,20.10
2019-02-24T05:31:40.768Z,18.20
2019-02-24T05:34:09.241Z,17.87
2019-02-24T05:36:37.799Z,18.20
2019-02-24T05:39:06.372Z,18.10
2019-02-24T05:41:34.957Z,18.33
2019-02-24T05:44:03.496Z,17.23
2019-02-24T05:46:32.065Z,19.67
2019-02-24T05:49:00.605Z,19.83
2019-02-24T05:51:29.176Z,20.13
2019-02-24T05:53:57.715Z,17.03
2019-02-24T05:56:26.244Z,17.43
2019-02-24T05:58:54.759Z,17.13
2019-02-24T06:01:23.274Z,17.67
2019-02-24T06:03:51.741Z,17.20
2019-02-24T06:06:20.201Z,17.00
2019-02-24T06:08:48.777Z,18.17
2019-02-24T06:11:17.240Z,18.90
2019-02-24T06:13:45.743Z,20.23
2019-02-24T06:16:14.291Z,20.10
2019-02-24T06:18:42.880Z,20.77
2019-02-24T06:21:11.417Z,19.43
2019-02-24T06:23:39.996Z,20.40
2019-02-24T06:26:08.496Z,20.07
2019-02-24T06:28:37.043Z,18.50
2019-02-24T06:31:05.691Z,17.73
2019-02-24T06:33:34.230Z,18.70
2019-02-24T06:36:02.793Z,18.40
2019-02-24T06:38:31.296Z,18.00
2019-02-24T06:40:59.988Z,18.33
2019-02-24T06:43:28.628Z,16.80
2019-02-24T06:45:57.120Z,18.03
2019-02-24T06:48:25.701Z,22.70
2019-02-24T06:50:55.881Z,22.40
2019-02-24T06:53:24.386Z,20.93
2019-02-24T06:55:52.946Z,18.27
2019-02-24T06:58:21.548Z,19.17
2019-02-24T07:00:50.005Z,19.50
2019-02-24T07:03:18.493Z,20.47
2019-02-24T07:05:46.955Z,22.70
2019-02-24T07:08:15.450Z,22.77
2019-02-24T07:10:43.918Z,21.40
2019-02-24T07:13:12.489Z,20.43
2019-02-24T07:15:40.952Z,19.87
2019-02-24T07:18:09.454Z,17.63
2019-02-24T07:20:37.947Z,16.77
2019-02-24T07:23:06.407Z,15.60
2019-02-24T07:25:34.972Z,17.07
2019-02-24T07:28:03.536Z,15.27
2019-02-24T07:30:32.089Z,16.50
2019-02-24T07:33:00.602Z,16.40
2019-02-24T07:35:29.123Z,16.80
2019-02-24T07:37:57.625Z,15.83
2019-02-24T07:40:26.148Z,17.03
2019-02-24T07:42:54.627Z,17.43
2019-02-24T07:45:23.215Z,17.13
2019-02-24T07:47:52.646Z,17.40
2019-02-24T07:50:21.211Z,18.70
2019-02-24T07:52:49.676Z,15.97
2019-02-24T07:55:18.179Z,17.53
2019-02-24T07:57:46.640Z,15.60
2019-02-24T08:00:15.271Z,17.67
2019-02-24T08:02:43.748Z,17.30
2019-02-24T08:05:12.316Z,16.10
2019-02-24T08:07:40.813Z,15.93
2019-02-24T08:10:09.380Z,16.27
2019-02-24T08:12:37.840Z,15.07
2019-02-24T08:15:08.277Z,14.77
2019-02-24T08:17:36.775Z,14.63
2019-02-24T08:20:08.242Z,14.07
2019-02-24T08:22:36.743Z,15.80
2019-02-24T08:25:06.847Z,14.43
2019-02-24T08:27:35.456Z,13.33
2019-02-24T08:30:06.066Z,14.07
2019-02-24T08:32:34.627Z,13.20
2019-02-24T08:35:03.121Z,15.07
2019-02-24T08:37:31.684Z,14.50
2019-02-24T08:40:00.298Z,15.03
2019-02-24T08:42:28.792Z,14.47
2019-02-24T08:44:57.288Z,14.73
2019-02-24T08:47:25.759Z,14.77
2019-02-24T08:49:54.268Z,14.00
2019-02-24T08:52:22.733Z,14.50
2019-02-24T08:54:51.367Z,15.20
2019-02-24T08:57:19.859Z,14.53
2019-02-24T08:59:48.322Z,14.97
2019-02-24T09:02:16.774Z,14.83
2019-02-24T09:04:45.271Z,14.93
2019-02-24T09:07:13.927Z,14.40
2019-02-24T09:09:42.392Z,15.30
2019-02-24T09:12:10.899Z,14.47
2019-02-24T09:14:39.369Z,14.00
2019-02-24T09:17:07.936Z,14.20
2019-02-24T09:19:36.794Z,14.23
2019-02-24T09:22:05.509Z,14.30
2019-02-24T09:24:34.000Z,14.67
2019-02-24T09:27:02.463Z,14.97
2019-02-24T09:29:31.039Z,14.07
2019-02-24T09:31:59.576Z,14.27
2019-02-24T09:34:28.086Z,13.87
2019-02-24T09:36:56.556Z,13.53
2019-02-24T09:39:25.099Z,14.00
2019-02-24T09:41:53.655Z,12.87
2019-02-24T09:44:22.119Z,13.20
2019-02-24T09:46:50.680Z,14.37
2019-02-24T09:49:19.141Z,12.37
2019-02-24T09:51:47.644Z,12.43
2019-02-24T09:54:16.151Z,12.30
2019-02-24T09:56:44.720Z,13.00
2019-02-24T09:59:13.200Z,12.43
2019-02-24T10:01:41.775Z,12.13
2019-02-24T10:04:10.312Z,12.73
2019-02-24T10:06:38.891Z,12.60
2019-02-24T10:09:07.403Z,12.77
2019-02-24T10:11:36.004Z,11.90
2019-02-24T10:14:04.538Z,12.13
2019-02-24T10:16:33.205Z,11.40
2019-02-24T10:19:01.744Z,12.03
2019-02-24T10:21:30.207Z,12.30
2019-02-24T10:23:58.775Z,11.40
2019-02-24T10:26:27.250Z,10.73
2019-02-24T10:28:55.744Z,10.57
2019-02-24T10:31:24.222Z,10.87
2019-02-24T10:33:52.790Z,10.10
2019-02-24T10:36:21.696Z,10.83
2019-02-24T10:38:50.251Z,9.67
2019-02-24T10:41:18.783Z,10.73
2019-02-24T10:43:47.288Z,10.57
2019-02-24T10:46:15.765Z,10.20
2019-02-24T10:48:44.337Z,9.80
2019-02-24T10:51:12.804Z,10.07
2019-02-24T10:53:41.377Z,9.87
2019-02-24T10:56:09.909Z,9.83
2019-02-24T10:58:38.407Z,8.70
2019-02-24T11:01:07.000Z,9.63
2019-02-24T11:03:35.490Z,9.80
2019-02-24T11:06:03.961Z,11.30
2019-02-24T11:08:32.593Z,9.53
2019-02-24T11:11:01.052Z,9.47
2019-02-24T11:13:29.612Z,9.80
2019-02-24T11:15:58.105Z,9.67
2019-02-24T11:18:26.568Z,10.53
2019-02-24T11:20:55.075Z,9.83
2019-02-24T11:23:23.664Z,10.60
2019-02-24T11:25:52.359Z,10.40
2019-02-24T11:28:20.866Z,9.77
2019-02-24T11:30:49.506Z,10.63
2019-02-24T11:33:17.976Z,10.80
2019-02-24T11:35:46.635Z,10.97
2019-02-24T11:38:15.099Z,11.37
2019-02-24T11:40:43.705Z,10.40
2019-02-24T11:43:12.288Z,10.63
2019-02-24T11:45:40.827Z,9.90
2019-02-24T11:48:09.331Z,11.03
2019-02-24T11:50:37.881Z,10.23
2019-02-24T11:53:06.445Z,9.30
2019-02-24T11:55:34.921Z,10.00
2019-02-24T11:58:03.482Z,10.67
2019-02-24T12:00:32.112Z,9.57
2019-02-24T12:03:00.994Z,9.20
2019-02-24T12:05:29.727Z,8.53
2019-02-24T12:07:58.185Z,8.50
2019-02-24T12:10:26.776Z,9.03
2019-02-24T12:12:55.332Z,9.13
2019-02-24T12:15:23.862Z,9.23
2019-02-24T12:17:52.364Z,9.00
2019-02-24T12:20:20.931Z,9.67
2019-02-24T12:22:49.402Z,8.63
2019-02-24T12:25:18.145Z,9.37
2019-02-24T12:27:46.691Z,9.27
2019-02-24T12:30:16.629Z,8.50
2019-02-24T12:32:45.274Z,9.60
2019-02-24T12:35:13.899Z,7.83
2019-02-24T12:37:42.980Z,8.50
2019-02-24T12:40:15.816Z,7.97
2019-02-24T12:42:44.389Z,7.00
2019-02-24T12:45:12.920Z,6.83
2019-02-24T12:47:43.427Z,8.20
2019-02-24T12:50:14.760Z,7.73
2019-02-24T12:52:43.371Z,9.37
2019-02-24T12:55:12.271Z,8.50
2019-02-24T12:57:41.519Z,9.60
2019-02-24T13:00:14.804Z,9.60
2019-02-24T13:02:43.420Z,10.77
2019-02-24T13:05:12.060Z,9.60
2019-02-24T13:07:40.531Z,10.43
2019-02-24T13:10:12.141Z,10.67
2019-02-24T13:12:40.781Z,11.10
2019-02-24T13:15:09.791Z,11.63
2019-02-24T13:17:38.364Z,11.03
2019-02-24T13:20:10.111Z,10.43
2019-02-24T13:22:39.257Z,10.70
2019-02-24T13:25:10.445Z,11.20
2019-02-24T13:27:39.089Z,11.57
2019-02-24T13:30:12.976Z,10.17
2019-02-24T13:32:41.508Z,10.17
2019-02-24T13:35:10.223Z,10.00
2019-02-24T13:37:38.799Z,9.57
2019-02-24T13:40:12.815Z,9.80
2019-02-24T13:42:41.286Z,9.27
2019-02-24T13:45:15.744Z,9.60
2019-02-24T13:47:44.290Z,9.50
2019-02-24T13:50:13.866Z,9.03
2019-02-24T13:52:42.447Z,8.90
2019-02-24T13:55:12.738Z,8.67
2019-02-24T13:57:41.344Z,9.60
2019-02-24T14:00:16.000Z,8.93
2019-02-24T14:02:44.636Z,9.40
2019-02-24T14:05:14.037Z,9.20
2019-02-24T14:07:42.602Z,9.47
2019-02-24T14:10:13.002Z,9.53
2019-02-24T14:12:42.069Z,8.87
2019-02-24T14:15:13.072Z,9.47
2019-02-24T14:17:41.704Z,10.65
2019-02-24T14:20:12.508Z,10.97
2019-02-24T14:22:41.131Z,11.23
2019-02-24T14:25:11.272Z,11.10
2019-02-24T14:27:39.749Z,10.57
2019-02-24T14:30:16.995Z,10.63
2019-02-24T14:32:45.702Z,10.87
2019-02-24T14:35:19.803Z,10.70
2019-02-24T14:37:48.353Z,10.53
2019-02-24T14:40:17.073Z,9.93
2019-02-24T14:42:45.614Z,9.87
2019-02-24T14:45:17.187Z,9.20
2019-02-24T14:47:45.720Z,8.57
2019-02-24T14:50:14.454Z,8.98
2019-02-24T14:52:43.132Z,9.27
2019-02-24T14:55:13.358Z,8.97
2019-02-24T14:57:41.973Z,9.17
2019-02-24T15:00:19.466Z,8.33
2019-02-24T15:02:48.078Z,8.40
2019-02-24T15:05:16.992Z,7.87
2019-02-24T15:07:45.788Z,7.83
2019-02-24T15:10:19.604Z,8.20
2019-02-24T15:12:48.067Z,7.80
2019-02-24T15:15:19.846Z,8.53
2019-02-24T15:17:48.786Z,8.80
2019-02-24T15:20:19.184Z,8.85
2019-02-24T15:22:47.830Z,9.30
2019-02-24T15:25:17.699Z,8.90
2019-02-24T15:27:46.336Z,7.92
2019-02-24T15:30:26.494Z,8.90
2019-02-24T15:32:55.076Z,7.97
2019-02-24T15:35:23.629Z,8.35
2019-02-24T15:37:52.116Z,8.83
2019-02-24T15:40:20.683Z,7.97
2019-02-24T15:42:49.155Z,8.13
2019-02-24T15:45:17.797Z,7.53
2019-02-24T15:47:46.458Z,7.95
2019-02-24T15:50:15.172Z,7.97
2019-02-24T15:52:43.772Z,8.28
2019-02-24T15:55:17.091Z,9.15
2019-02-24T15:57:45.600Z,8.38
2019-02-24T16:00:19.140Z,8.88
2019-02-24T16:02:47.616Z,9.78
2019-02-24T16:05:16.199Z,9.68
2019-02-24T16:07:44.770Z,9.43
2019-02-24T16:10:18.661Z,9.28
2019-02-24T16:12:47.175Z,9.63
2019-02-24T16:15:17.448Z,8.38
2019-02-24T16:17:45.904Z,9.15
2019-02-24T16:20:22.883Z,9.65
2019-02-24T16:22:51.344Z,9.55
2019-02-24T16:25:19.867Z,10.30
2019-02-24T16:27:48.399Z,10.95
2019-02-24T16:30:17.120Z,10.08
2019-02-24T16:32:45.836Z,9.60
2019-02-24T16:35:15.872Z,9.45
2019-02-24T16:37:44.332Z,8.83
2019-02-24T16:40:21.016Z,10.13
2019-02-24T16:42:49.574Z,9.70
2019-02-24T16:45:18.208Z,8.80
2019-02-24T16:47:46.740Z,9.07
2019-02-24T16:50:23.784Z,8.40
2019-02-24T16:52:52.322Z,8.90
2019-02-24T16:55:20.964Z,9.83
2019-02-24T16:57:49.519Z,9.57
2019-02-24T17:00:25.364Z,9.63
2019-02-24T17:02:53.947Z,9.73
2019-02-24T17:05:22.923Z,9.73
2019-02-24T17:07:51.491Z,10.13
2019-02-24T17:10:27.373Z,9.93
2019-02-24T17:12:56.500Z,10.90
2019-02-24T17:15:24.961Z,10.60
2019-02-24T17:17:53.533Z,11.40
2019-02-24T17:20:29.954Z,11.80
2019-02-24T17:22:58.491Z,12.90
2019-02-24T17:25:26.983Z,14.97
2019-02-24T17:27:55.484Z,10.97
2019-02-24T17:30:24.188Z,12.00
2019-02-24T17:32:52.738Z,12.20
2019-02-24T17:35:21.501Z,12.03
2019-02-24T17:37:50.034Z,12.53
2019-02-24T17:40:20.182Z,12.03
2019-02-24T17:42:48.820Z,11.27
2019-02-24T17:45:18.387Z,12.10
2019-02-24T17:47:46.974Z,13.03
2019-02-24T17:50:16.791Z,13.73
2019-02-24T17:52:45.249Z,13.40
2019-02-24T17:55:14.757Z,12.30
2019-02-24T17:57:43.325Z,12.17
2019-02-24T18:00:32.551Z,10.27
2019-02-24T18:03:01.010Z,12.00
2019-02-24T18:05:29.517Z,10.33
2019-02-24T18:07:58.093Z,11.30
2019-02-24T18:10:26.626Z,11.17
2019-02-24T18:12:55.083Z,11.50
2019-02-24T18:15:23.666Z,13.13
2019-02-24T18:17:52.205Z,13.20
2019-02-24T18:20:22.200Z,13.47
2019-02-24T18:22:50.839Z,13.13
2019-02-24T18:25:19.441Z,12.60
2019-02-24T18:27:47.928Z,11.43
2019-02-24T18:30:22.410Z,11.23
2019-02-24T18:32:50.941Z,11.30
2019-02-24T18:35:19.498Z,12.60
2019-02-24T18:37:47.964Z,11.87
2019-02-24T18:40:16.992Z,13.80
2019-02-24T18:42:45.527Z,13.83
2019-02-24T18:45:14.763Z,12.67
2019-02-24T18:47:43.335Z,15.37
2019-02-24T18:50:14.873Z,13.63
2019-02-24T18:52:43.488Z,13.50
2019-02-24T18:55:12.688Z,14.30
2019-02-24T18:57:41.299Z,14.40
2019-02-24T19:00:20.256Z,14.55
2019-02-24T19:02:48.788Z,16.48
2019-02-24T19:05:17.414Z,13.87
2019-02-24T19:07:46.399Z,15.33
2019-02-24T19:10:21.324Z,15.43
2019-02-24T19:12:50.306Z,14.37
2019-02-24T19:15:22.970Z,14.30
2019-02-24T19:17:51.592Z,13.70
2019-02-24T19:20:21.500Z,14.67
2019-02-24T19:22:50.083Z,14.43
2019-02-24T19:25:18.701Z,15.10
2019-02-24T19:27:47.484Z,15.50
2019-02-24T19:30:19.903Z,15.97
2019-02-24T19:32:48.543Z,17.23
2019-02-24T19:35:18.468Z,16.27
2019-02-24T19:37:47.055Z,16.50
2019-02-24T19:40:17.745Z,17.00
2019-02-24T19:42:46.443Z,16.80
2019-02-24T19:45:25.369Z,17.03
2019-02-24T19:47:54.077Z,15.90
2019-02-24T19:50:22.694Z,16.57
2019-02-24T19:52:51.490Z,17.07
2019-02-24T19:55:20.059Z,16.43
2019-02-24T19:57:48.831Z,15.93
2019-02-24T20:00:20.453Z,15.53
2019-02-24T20:02:49.072Z,15.43
2019-02-24T20:05:18.073Z,16.27
2019-02-24T20:07:46.993Z,15.57
2019-02-24T20:10:20.550Z,16.07
2019-02-24T20:12:49.197Z,16.03
2019-02-24T20:15:17.904Z,16.23
2019-02-24T20:17:46.531Z,16.73
2019-02-24T20:20:16.855Z,16.73
2019-02-24T20:22:45.452Z,16.40
2019-02-24T20:25:18.842Z,16.67
2019-02-24T20:27:47.353Z,15.67
2019-02-24T20:30:18.791Z,17.73
2019-02-24T20:32:47.326Z,17.77
2019-02-24T20:35:15.820Z,17.17
2019-02-24T20:37:44.276Z,16.33
2019-02-24T20:40:13.044Z,16.53
2019-02-24T20:42:41.583Z,15.70
2019-02-24T20:45:15.945Z,16.13
2019-02-24T20:47:44.577Z,16.27
2019-02-24T20:50:15.592Z,16.93
2019-02-24T20:52:44.166Z,16.50
2019-02-24T20:55:12.985Z,16.07
2019-02-24T20:57:41.444Z,16.23
2019-02-24T21:00:19.221Z,16.77
2019-02-24T21:02:47.680Z,16.43
2019-02-24T21:05:16.685Z,16.97
2019-02-24T21:07:45.307Z,16.33
2019-02-24T21:10:13.948Z,17.20
2019-02-24T21:12:42.418Z,16.60
2019-02-24T21:15:13.668Z,16.90
2019-02-24T21:17:43.671Z,17.47
2019-02-24T21:20:31.917Z,18.37
2019-02-24T21:23:00.415Z,16.77
2019-02-24T21:25:29.031Z,18.47
2019-02-24T21:27:57.672Z,16.93
2019-02-24T21:30:27.081Z,17.23
2019-02-24T21:32:55.661Z,17.53
2019-02-24T21:35:24.202Z,15.93
2019-02-24T21:37:52.768Z,16.87
2019-02-24T21:40:23.425Z,17.60
2019-02-24T21:42:51.600Z,16.67
2019-02-24T21:45:22.781Z,17.30
2019-02-24T21:47:52.041Z,17.07
2019-02-24T21:50:20.727Z,17.53
2019-02-24T21:52:49.260Z,17.03
2019-02-24T21:55:18.035Z,17.27
2019-02-24T21:57:46.696Z,17.93
2019-02-24T22:00:20.152Z,17.77
2019-02-24T22:02:48.722Z,17.93
2019-02-24T22:05:17.359Z,18.87
2019-02-24T22:07:45.824Z,19.80
2019-02-24T22:10:15.633Z,20.17
2019-02-24T22:12:44.212Z,19.20
2019-02-24T22:15:15.788Z,18.60
2019-02-24T22:17:44.336Z,19.30
2019-02-24T22:20:14.889Z,18.33
2019-02-24T22:22:43.791Z,17.80
2019-02-24T22:25:14.497Z,17.43
2019-02-24T22:27:43.137Z,19.97
2019-02-24T22:30:14.508Z,18.67
2019-02-24T22:32:42.996Z,18.97
2019-02-24T22:35:11.625Z,20.00
2019-02-24T22:37:40.230Z,18.30
2019-02-24T22:40:16.412Z,19.10
2019-02-24T22:42:45.026Z,18.33
2019-02-24T22:45:22.440Z,19.87
2019-02-24T22:47:50.985Z,18.20
2019-02-24T22:50:19.638Z,19.27
2019-02-24T22:52:48.420Z,18.37
2019-02-24T22:55:17.958Z,18.70
2019-02-24T22:57:46.552Z,17.43
2019-02-24T23:00:34.700Z,18.47
2019-02-24T23:03:03.733Z,18.67
2019-02-24T23:05:32.261Z,19.10
2019-02-24T23:08:00.798Z,17.80
2019-02-24T23:10:29.362Z,20.60
2019-02-24T23:12:57.820Z,19.17
2019-02-24T23:15:26.303Z,19.83
2019-02-24T23:17:54.844Z,20.23
2019-02-24T23:20:23.334Z,20.50
2019-02-24T23:22:51.872Z,19.80
2019-02-24T23:25:20.355Z,20.10
2019-02-24T23:27:48.951Z,19.23
2019-02-24T23:30:17.524Z,19.37
2019-02-24T23:32:46.011Z,19.83
2019-02-24T23:35:14.576Z,21.30
2019-02-24T23:37:43.040Z,19.83
2019-02-24T23:40:11.635Z,18.77
2019-02-24T23:42:40.135Z,18.90
2019-02-24T23:45:11.006Z,19.80
2019-02-24T23:47:39.854Z,19.90
2019-02-24T23:50:11.031Z,20.30
2019-02-24T23:52:39.534Z,20.53
2019-02-24T23:55:09.512Z,21.97
2019-02-24T23:57:38.087Z,20.53
